sensor_id;sensor_type;location;lat;lon;timestamp;pressure;altitude;pressure_sealevel;temperature;humidity
11440;BME280;5776;51.814;4.510;2023-04-20T00:00:29;102444.44;;;10.31;60.93
11440;BME280;5776;51.814;4.510;2023-04-20T00:02:55;102439.72;;;10.26;60.66
11440;BME280;5776;51.814;4.510;2023-04-20T00:05:23;102438.31;;;10.24;62.10
11440;BME280;5776;51.814;4.510;2023-04-20T00:07:49;102426.78;;;10.16;61.02
11440;BME280;5776;51.814;4.510;2023-04-20T00:10:15;102429.81;;;10.20;61.82
11440;BME280;5776;51.814;4.510;2023-04-20T00:12:41;102434.19;;;10.21;61.67
11440;BME280;5776;51.814;4.510;2023-04-20T00:15:07;102430.56;;;10.15;62.02
11440;BME280;5776;51.814;4.510;2023-04-20T00:17:33;102417.56;;;10.17;62.04
11440;BME280;5776;51.814;4.510;2023-04-20T00:20:01;102420.47;;;10.11;61.47
11440;BME280;5776;51.814;4.510;2023-04-20T00:22:28;102416.91;;;10.10;62.67
11440;BME280;5776;51.814;4.510;2023-04-20T00:24:55;102413.38;;;10.10;62.04
11440;BME280;5776;51.814;4.510;2023-04-20T00:27:21;102414.94;;;10.06;61.98
11440;BME280;5776;51.814;4.510;2023-04-20T00:29:47;102408.44;;;10.07;62.35
11440;BME280;5776;51.814;4.510;2023-04-20T00:32:13;102413.28;;;10.05;61.71
11440;BME280;5776;51.814;4.510;2023-04-20T00:34:39;102409.16;;;10.02;62.76
11440;BME280;5776;51.814;4.510;2023-04-20T00:37:05;102410.84;;;10.03;62.08
11440;BME280;5776;51.814;4.510;2023-04-20T00:39:31;102415.09;;;9.99;62.20
11440;BME280;5776;51.814;4.510;2023-04-20T00:42:04;102405.56;;;9.97;61.33
11440;BME280;5776;51.814;4.510;2023-04-20T00:44:31;102400.13;;;9.97;61.41
11440;BME280;5776;51.814;4.510;2023-04-20T00:46:58;102406.06;;;9.93;62.45
11440;BME280;5776;51.814;4.510;2023-04-20T00:49:26;102400.78;;;9.87;62.42
11440;BME280;5776;51.814;4.510;2023-04-20T00:51:56;102403.25;;;9.88;62.56
11440;BME280;5776;51.814;4.510;2023-04-20T00:54:23;102402.66;;;9.86;62.10
11440;BME280;5776;51.814;4.510;2023-04-20T00:56:49;102396.16;;;9.87;62.26
11440;BME280;5776;51.814;4.510;2023-04-20T00:59:16;102393.94;;;9.84;63.21
11440;BME280;5776;51.814;4.510;2023-04-20T01:01:42;102389.25;;;9.80;63.04
11440;BME280;5776;51.814;4.510;2023-04-20T01:04:08;102386.78;;;9.78;62.99
11440;BME280;5776;51.814;4.510;2023-04-20T01:06:34;102389.25;;;9.80;62.94
11440;BME280;5776;51.814;4.510;2023-04-20T01:09:01;102380.88;;;9.81;63.77
11440;BME280;5776;51.814;4.510;2023-04-20T01:11:26;102380.53;;;9.78;64.91
11440;BME280;5776;51.814;4.510;2023-04-20T01:13:52;102376.66;;;9.73;63.38
11440;BME280;5776;51.814;4.510;2023-04-20T01:16:18;102369.59;;;9.72;63.40
11440;BME280;5776;51.814;4.510;2023-04-20T01:18:46;102373.09;;;9.73;63.41
11440;BME280;5776;51.814;4.510;2023-04-20T01:21:14;102364.97;;;9.73;62.95
11440;BME280;5776;51.814;4.510;2023-04-20T01:23:41;102360.38;;;9.73;63.78
11440;BME280;5776;51.814;4.510;2023-04-20T01:26:09;102356.50;;;9.69;62.68
11440;BME280;5776;51.814;4.510;2023-04-20T01:28:35;102354.88;;;9.68;63.35
11440;BME280;5776;51.814;4.510;2023-04-20T01:31:05;102342.38;;;9.67;62.82
11440;BME280;5776;51.814;4.510;2023-04-20T01:33:32;102343.44;;;9.66;63.78
11440;BME280;5776;51.814;4.510;2023-04-20T01:35:58;102337.19;;;9.66;63.44
11440;BME280;5776;51.814;4.510;2023-04-20T01:38:25;102338.50;;;9.63;62.80
11440;BME280;5776;51.814;4.510;2023-04-20T01:40:52;102326.00;;;9.62;63.97
11440;BME280;5776;51.814;4.510;2023-04-20T01:43:19;102324.03;;;9.58;63.00
11440;BME280;5776;51.814;4.510;2023-04-20T01:45:45;102327.56;;;9.58;63.45
11440;BME280;5776;51.814;4.510;2023-04-20T01:48:11;102329.22;;;9.59;63.65
11440;BME280;5776;51.814;4.510;2023-04-20T01:50:37;102319.66;;;9.57;64.05
11440;BME280;5776;51.814;4.510;2023-04-20T01:53:03;102316.38;;;9.55;63.58
11440;BME280;5776;51.814;4.510;2023-04-20T01:55:29;102320.16;;;9.54;64.81
11440;BME280;5776;51.814;4.510;2023-04-20T01:57:55;102309.06;;;9.55;65.32
11440;BME280;5776;51.814;4.510;2023-04-20T02:00:21;102313.66;;;9.55;65.99
11440;BME280;5776;51.814;4.510;2023-04-20T02:02:48;102310.88;;;9.49;64.56
11440;BME280;5776;51.814;4.510;2023-04-20T02:05:14;102303.53;;;9.50;64.91
11440;BME280;5776;51.814;4.510;2023-04-20T02:07:40;102308.50;;;9.53;66.76
11440;BME280;5776;51.814;4.510;2023-04-20T02:10:06;102305.22;;;9.51;66.04
11440;BME280;5776;51.814;4.510;2023-04-20T02:12:32;102297.88;;;9.51;66.61
11440;BME280;5776;51.814;4.510;2023-04-20T02:14:58;102303.91;;;9.54;65.82
11440;BME280;5776;51.814;4.510;2023-04-20T02:17:24;102296.50;;;9.49;66.21
11440;BME280;5776;51.814;4.510;2023-04-20T02:19:50;102296.72;;;9.47;66.42
11440;BME280;5776;51.814;4.510;2023-04-20T02:22:16;102284.47;;;9.45;67.23
11440;BME280;5776;51.814;4.510;2023-04-20T02:24:42;102290.97;;;9.44;66.75
11440;BME280;5776;51.814;4.510;2023-04-20T02:27:09;102293.69;;;9.44;68.24
11440;BME280;5776;51.814;4.510;2023-04-20T02:29:35;102287.19;;;9.45;68.74
11440;BME280;5776;51.814;4.510;2023-04-20T02:32:01;102275.28;;;9.46;67.06
11440;BME280;5776;51.814;4.510;2023-04-20T02:34:27;102281.03;;;9.49;68.54
11440;BME280;5776;51.814;4.510;2023-04-20T02:36:53;102274.22;;;9.47;67.48
11440;BME280;5776;51.814;4.510;2023-04-20T02:39:19;102265.56;;;9.50;67.49
11440;BME280;5776;51.814;4.510;2023-04-20T02:41:45;102263.13;;;9.48;67.51
11440;BME280;5776;51.814;4.510;2023-04-20T02:44:11;102270.41;;;9.48;68.40
11440;BME280;5776;51.814;4.510;2023-04-20T02:46:37;102261.72;;;9.46;68.71
11440;BME280;5776;51.814;4.510;2023-04-20T02:49:04;102262.53;;;9.46;68.83
11440;BME280;5776;51.814;4.510;2023-04-20T02:51:30;102254.06;;;9.43;69.64
11440;BME280;5776;51.814;4.510;2023-04-20T02:53:56;102247.81;;;9.42;70.21
11440;BME280;5776;51.814;4.510;2023-04-20T02:56:22;102253.00;;;9.44;69.75
11440;BME280;5776;51.814;4.510;2023-04-20T02:58:48;102244.06;;;9.43;69.96
11440;BME280;5776;51.814;4.510;2023-04-20T03:01:16;102243.47;;;9.41;70.34
11440;BME280;5776;51.814;4.510;2023-04-20T03:03:42;102242.41;;;9.42;70.99
11440;BME280;5776;51.814;4.510;2023-04-20T03:06:08;102238.06;;;9.41;69.86
11440;BME280;5776;51.814;4.510;2023-04-20T03:08:34;102243.22;;;9.43;70.46
11440;BME280;5776;51.814;4.510;2023-04-20T03:11:01;102233.22;;;9.43;71.45
11440;BME280;5776;51.814;4.510;2023-04-20T03:13:26;102229.44;;;9.44;71.47
11440;BME280;5776;51.814;4.510;2023-04-20T03:15:52;102232.13;;;9.44;72.67
11440;BME280;5776;51.814;4.510;2023-04-20T03:18:18;102227.78;;;9.43;72.85
11440;BME280;5776;51.814;4.510;2023-04-20T03:20:44;102229.94;;;9.41;72.95
11440;BME280;5776;51.814;4.510;2023-04-20T03:23:10;102226.88;;;9.38;72.64
11440;BME280;5776;51.814;4.510;2023-04-20T03:25:36;102223.09;;;9.39;73.77
11440;BME280;5776;51.814;4.510;2023-04-20T03:28:02;102220.88;;;9.36;73.58
11440;BME280;5776;51.814;4.510;2023-04-20T03:30:28;102219.22;;;9.35;74.18
11440;BME280;5776;51.814;4.510;2023-04-20T03:32:55;102216.50;;;9.35;75.03
11440;BME280;5776;51.814;4.510;2023-04-20T03:35:21;102216.28;;;9.36;75.02
11440;BME280;5776;51.814;4.510;2023-04-20T03:37:47;102205.44;;;9.36;75.11
11440;BME280;5776;51.814;4.510;2023-04-20T03:40:13;102208.97;;;9.37;75.07
11440;BME280;5776;51.814;4.510;2023-04-20T03:42:40;102200.81;;;9.37;76.03
11440;BME280;5776;51.814;4.510;2023-04-20T03:45:06;102195.41;;;9.37;75.56
11440;BME280;5776;51.814;4.510;2023-04-20T03:47:32;102200.31;;;9.40;75.22
11440;BME280;5776;51.814;4.510;2023-04-20T03:49:58;102195.16;;;9.38;75.85
11440;BME280;5776;51.814;4.510;2023-04-20T03:52:24;102190.56;;;9.39;76.07
11440;BME280;5776;51.814;4.510;2023-04-20T03:54:50;102187.34;;;9.42;76.36
11440;BME280;5776;51.814;4.510;2023-04-20T03:57:16;102179.28;;;9.47;77.09
11440;BME280;5776;51.814;4.510;2023-04-20T03:59:42;102183.97;;;9.51;76.99
11440;BME280;5776;51.814;4.510;2023-04-20T04:02:08;102195.81;;;9.45;77.78
11440;BME280;5776;51.814;4.510;2023-04-20T04:04:35;102180.28;;;9.41;77.66
11440;BME280;5776;51.814;4.510;2023-04-20T04:07:01;102179.72;;;9.39;77.42
11440;BME280;5776;51.814;4.510;2023-04-20T04:09:27;102177.81;;;9.39;78.38
11440;BME280;5776;51.814;4.510;2023-04-20T04:11:53;102181.03;;;9.36;78.12
11440;BME280;5776;51.814;4.510;2023-04-20T04:14:19;102172.63;;;9.38;78.02
11440;BME280;5776;51.814;4.510;2023-04-20T04:16:45;102171.00;;;9.37;78.43
11440;BME280;5776;51.814;4.510;2023-04-20T04:19:11;102179.72;;;9.39;79.00
11440;BME280;5776;51.814;4.510;2023-04-20T04:21:37;102176.44;;;9.37;80.04
11440;BME280;5776;51.814;4.510;2023-04-20T04:24:03;102169.91;;;9.38;79.20
11440;BME280;5776;51.814;4.510;2023-04-20T04:26:29;102155.31;;;9.39;79.10
11440;BME280;5776;51.814;4.510;2023-04-20T04:28:56;102162.38;;;9.40;80.00
11440;BME280;5776;51.814;4.510;2023-04-20T04:31:22;102168.28;;;9.37;79.51
11440;BME280;5776;51.814;4.510;2023-04-20T04:33:49;102147.69;;;9.36;80.07
11440;BME280;5776;51.814;4.510;2023-04-20T04:36:15;102152.84;;;9.37;79.77
11440;BME280;5776;51.814;4.510;2023-04-20T04:38:41;102146.59;;;9.37;80.24
11440;BME280;5776;51.814;4.510;2023-04-20T04:41:10;102141.69;;;9.34;80.13
11440;BME280;5776;51.814;4.510;2023-04-20T04:43:39;102134.19;;;9.41;79.70
11440;BME280;5776;51.814;4.510;2023-04-20T04:46:09;102136.66;;;9.42;80.09
11440;BME280;5776;51.814;4.510;2023-04-20T04:48:36;102133.13;;;9.42;79.93
11440;BME280;5776;51.814;4.510;2023-04-20T04:51:03;102130.16;;;9.43;80.30
11440;BME280;5776;51.814;4.510;2023-04-20T04:53:29;102119.56;;;9.42;80.35
11440;BME280;5776;51.814;4.510;2023-04-20T04:55:55;102121.69;;;9.40;80.88
11440;BME280;5776;51.814;4.510;2023-04-20T04:58:21;102116.84;;;9.42;80.90
11440;BME280;5776;51.814;4.510;2023-04-20T05:00:47;102120.66;;;9.41;80.22
11440;BME280;5776;51.814;4.510;2023-04-20T05:03:13;102122.28;;;9.42;80.92
11440;BME280;5776;51.814;4.510;2023-04-20T05:05:41;102110.84;;;9.40;80.63
11440;BME280;5776;51.814;4.510;2023-04-20T05:08:07;102104.38;;;9.41;80.65
11440;BME280;5776;51.814;4.510;2023-04-20T05:10:33;102102.72;;;9.40;80.74
11440;BME280;5776;51.814;4.510;2023-04-20T05:12:59;102097.06;;;9.41;80.02
11440;BME280;5776;51.814;4.510;2023-04-20T05:15:25;102096.78;;;9.43;80.07
11440;BME280;5776;51.814;4.510;2023-04-20T05:17:51;102087.59;;;9.44;80.91
11440;BME280;5776;51.814;4.510;2023-04-20T05:20:18;102084.31;;;9.42;81.39
11440;BME280;5776;51.814;4.510;2023-04-20T05:22:44;102092.44;;;9.42;81.18
11440;BME280;5776;51.814;4.510;2023-04-20T05:25:10;102086.22;;;9.41;80.33
11440;BME280;5776;51.814;4.510;2023-04-20T05:27:36;102088.91;;;9.41;81.51
11440;BME280;5776;51.814;4.510;2023-04-20T05:30:03;102091.34;;;9.43;80.93
11440;BME280;5776;51.814;4.510;2023-04-20T05:32:29;102085.13;;;9.42;81.47
11440;BME280;5776;51.814;4.510;2023-04-20T05:34:55;102091.63;;;9.41;80.71
11440;BME280;5776;51.814;4.510;2023-04-20T05:37:22;102074.03;;;9.44;80.73
11440;BME280;5776;51.814;4.510;2023-04-20T05:39:48;102074.19;;;9.54;81.14
11440;BME280;5776;51.814;4.510;2023-04-20T05:42:14;102079.66;;;9.59;81.03
11440;BME280;5776;51.814;4.510;2023-04-20T05:44:40;102072.91;;;9.62;81.84
11440;BME280;5776;51.814;4.510;2023-04-20T05:47:08;102069.56;;;9.55;82.18
11440;BME280;5776;51.814;4.510;2023-04-20T05:49:34;102082.56;;;9.52;82.50
11440;BME280;5776;51.814;4.510;2023-04-20T05:52:00;102075.75;;;9.50;82.49
11440;BME280;5776;51.814;4.510;2023-04-20T05:54:27;102071.16;;;9.50;82.30
11440;BME280;5776;51.814;4.510;2023-04-20T05:56:54;102070.81;;;9.47;82.85
11440;BME280;5776;51.814;4.510;2023-04-20T05:59:20;102071.91;;;9.46;83.00
11440;BME280;5776;51.814;4.510;2023-04-20T06:01:46;102071.31;;;9.44;83.78
11440;BME280;5776;51.814;4.510;2023-04-20T06:04:12;102071.56;;;9.42;83.27
11440;BME280;5776;51.814;4.510;2023-04-20T06:06:38;102062.84;;;9.40;83.99
11440;BME280;5776;51.814;4.510;2023-04-20T06:09:04;102068.03;;;9.42;84.75
11440;BME280;5776;51.814;4.510;2023-04-20T06:11:30;102070.50;;;9.43;83.58
11440;BME280;5776;51.814;4.510;2023-04-20T06:13:57;102069.19;;;9.46;83.75
11440;BME280;5776;51.814;4.510;2023-04-20T06:16:23;102066.09;;;9.59;83.13
11440;BME280;5776;51.814;4.510;2023-04-20T06:18:49;102064.47;;;9.58;84.36
11440;BME280;5776;51.814;4.510;2023-04-20T06:21:15;102073.16;;;9.60;84.16
11440;BME280;5776;51.814;4.510;2023-04-20T06:23:42;102067.78;;;9.65;84.48
11440;BME280;5776;51.814;4.510;2023-04-20T06:26:11;102063.47;;;9.64;84.13
11440;BME280;5776;51.814;4.510;2023-04-20T06:28:37;102063.47;;;9.64;83.32
11440;BME280;5776;51.814;4.510;2023-04-20T06:31:04;102071.59;;;9.64;84.22
11440;BME280;5776;51.814;4.510;2023-04-20T06:33:30;102069.69;;;9.65;83.46
11440;BME280;5776;51.814;4.510;2023-04-20T06:35:56;102066.97;;;9.65;84.08
11440;BME280;5776;51.814;4.510;2023-04-20T06:38:23;102064.53;;;9.63;83.36
11440;BME280;5776;51.814;4.510;2023-04-20T06:40:50;102056.88;;;9.60;83.23
11440;BME280;5776;51.814;4.510;2023-04-20T06:43:16;102048.94;;;9.54;82.45
11440;BME280;5776;51.814;4.510;2023-04-20T06:45:42;102043.47;;;9.48;82.66
11440;BME280;5776;51.814;4.510;2023-04-20T06:48:08;102043.19;;;9.50;82.99
11440;BME280;5776;51.814;4.510;2023-04-20T06:50:34;102035.06;;;9.50;82.81
11440;BME280;5776;51.814;4.510;2023-04-20T06:53:02;102033.94;;;9.46;81.78
11440;BME280;5776;51.814;4.510;2023-04-20T06:55:29;102031.69;;;9.43;82.35
11440;BME280;5776;51.814;4.510;2023-04-20T06:57:55;102038.78;;;9.44;82.02
11440;BME280;5776;51.814;4.510;2023-04-20T07:00:21;102033.81;;;9.36;82.54
11440;BME280;5776;51.814;4.510;2023-04-20T07:02:49;102031.03;;;9.30;81.61
11440;BME280;5776;51.814;4.510;2023-04-20T07:05:15;102032.59;;;9.26;82.37
11440;BME280;5776;51.814;4.510;2023-04-20T07:07:42;102039.16;;;9.30;81.81
11440;BME280;5776;51.814;4.510;2023-04-20T07:10:11;102035.88;;;9.28;81.80
11440;BME280;5776;51.814;4.510;2023-04-20T07:12:38;102033.16;;;9.28;80.94
11440;BME280;5776;51.814;4.510;2023-04-20T07:15:05;102036.09;;;9.27;81.20
11440;BME280;5776;51.814;4.510;2023-04-20T07:17:33;102030.13;;;9.25;81.58
11440;BME280;5776;51.814;4.510;2023-04-20T07:19:59;102036.03;;;9.22;82.75
11440;BME280;5776;51.814;4.510;2023-04-20T07:22:38;102029.28;;;9.24;82.98
11440;BME280;5776;51.814;4.510;2023-04-20T07:25:06;102037.25;;;9.31;82.58
11440;BME280;5776;51.814;4.510;2023-04-20T07:27:37;102042.19;;;9.34;83.68
11440;BME280;5776;51.814;4.510;2023-04-20T07:30:04;102040.28;;;9.35;83.70
11440;BME280;5776;51.814;4.510;2023-04-20T07:32:32;102047.03;;;9.32;84.87
11440;BME280;5776;51.814;4.510;2023-04-20T07:34:58;102046.22;;;9.32;85.85
11440;BME280;5776;51.814;4.510;2023-04-20T07:37:24;102056.25;;;9.31;87.27
11440;BME280;5776;51.814;4.510;2023-04-20T07:39:51;102056.47;;;9.29;87.68
11440;BME280;5776;51.814;4.510;2023-04-20T07:42:19;102059.19;;;9.29;88.08
11440;BME280;5776;51.814;4.510;2023-04-20T07:44:45;102055.44;;;9.30;89.16
11440;BME280;5776;51.814;4.510;2023-04-20T07:47:11;102046.22;;;9.32;89.04
11440;BME280;5776;51.814;4.510;2023-04-20T07:49:36;102043.72;;;9.30;89.71
11440;BME280;5776;51.814;4.510;2023-04-20T07:52:06;102035.38;;;9.32;90.00
11440;BME280;5776;51.814;4.510;2023-04-20T07:54:32;102037.50;;;9.29;90.12
11440;BME280;5776;51.814;4.510;2023-04-20T07:56:58;102036.44;;;9.30;90.36
11440;BME280;5776;51.814;4.510;2023-04-20T07:59:25;102041.59;;;9.32;90.21
11440;BME280;5776;51.814;4.510;2023-04-20T08:01:52;102049.16;;;9.30;91.48
11440;BME280;5776;51.814;4.510;2023-04-20T08:04:18;102045.31;;;9.26;90.84
11440;BME280;5776;51.814;4.510;2023-04-20T08:06:44;102049.94;;;9.25;90.69
11440;BME280;5776;51.814;4.510;2023-04-20T08:09:10;102050.69;;;9.04;92.59
11440;BME280;5776;51.814;4.510;2023-04-20T08:11:36;102034.28;;;8.94;94.28
11440;BME280;5776;51.814;4.510;2023-04-20T08:14:02;102037.72;;;8.89;95.13
11440;BME280;5776;51.814;4.510;2023-04-20T08:16:28;102037.41;;;8.85;94.79
11440;BME280;5776;51.814;4.510;2023-04-20T08:18:54;102054.47;;;8.86;94.86
11440;BME280;5776;51.814;4.510;2023-04-20T08:21:20;102054.78;;;8.90;94.27
11440;BME280;5776;51.814;4.510;2023-04-20T08:23:47;102044.22;;;8.88;94.98
11440;BME280;5776;51.814;4.510;2023-04-20T08:26:14;102036.91;;;8.89;95.13
11440;BME280;5776;51.814;4.510;2023-04-20T08:28:42;102034.78;;;8.91;94.50
11440;BME280;5776;51.814;4.510;2023-04-20T08:31:10;102023.94;;;8.91;94.95
11440;BME280;5776;51.814;4.510;2023-04-20T08:33:36;102022.22;;;8.84;94.49
11440;BME280;5776;51.814;4.510;2023-04-20T08:36:02;102028.63;;;8.78;95.55
11440;BME280;5776;51.814;4.510;2023-04-20T08:38:29;102022.13;;;8.79;94.72
11440;BME280;5776;51.814;4.510;2023-04-20T08:40:55;102030.59;;;8.83;95.80
11440;BME280;5776;51.814;4.510;2023-04-20T08:43:21;102017.88;;;8.83;94.94
11440;BME280;5776;51.814;4.510;2023-04-20T08:45:48;102027.03;;;8.82;95.48
11440;BME280;5776;51.814;4.510;2023-04-20T08:48:18;102017.53;;;8.80;96.31
11440;BME280;5776;51.814;4.510;2023-04-20T08:50:46;102026.41;;;8.75;96.49
11440;BME280;5776;51.814;4.510;2023-04-20T08:53:14;102022.13;;;8.79;95.70
11440;BME280;5776;51.814;4.510;2023-04-20T08:55:40;102029.69;;;8.77;96.10
11440;BME280;5776;51.814;4.510;2023-04-20T08:58:06;102028.94;;;8.82;95.85
11440;BME280;5776;51.814;4.510;2023-04-20T09:00:32;102023.22;;;8.78;96.95
11440;BME280;5776;51.814;4.510;2023-04-20T09:02:58;102023.72;;;8.75;96.74
11440;BME280;5776;51.814;4.510;2023-04-20T09:05:27;102016.41;;;8.76;96.18
11440;BME280;5776;51.814;4.510;2023-04-20T09:07:55;102012.09;;;8.80;98.11
11440;BME280;5776;51.814;4.510;2023-04-20T09:10:22;102011.28;;;8.79;97.70
11440;BME280;5776;51.814;4.510;2023-04-20T09:12:52;102005.28;;;8.77;97.65
11440;BME280;5776;51.814;4.510;2023-04-20T09:15:29;102017.28;;;8.81;98.47
11440;BME280;5776;51.814;4.510;2023-04-20T09:17:55;102008.34;;;8.81;98.69
11440;BME280;5776;51.814;4.510;2023-04-20T09:20:32;102003.16;;;8.79;97.99
11440;BME280;5776;51.814;4.510;2023-04-20T09:23:14;101995.84;;;8.80;98.12
11440;BME280;5776;51.814;4.510;2023-04-20T09:25:41;102001.03;;;8.81;98.54
11440;BME280;5776;51.814;4.510;2023-04-20T09:28:08;102005.38;;;8.82;98.26
11440;BME280;5776;51.814;4.510;2023-04-20T09:30:45;101999.97;;;8.82;99.63
11440;BME280;5776;51.814;4.510;2023-04-20T09:33:12;102001.53;;;8.78;100.00
11440;BME280;5776;51.814;4.510;2023-04-20T09:35:43;101987.50;;;8.81;99.18
11440;BME280;5776;51.814;4.510;2023-04-20T09:38:13;101993.72;;;8.82;99.35
11440;BME280;5776;51.814;4.510;2023-04-20T09:40:40;101993.16;;;8.80;99.12
11440;BME280;5776;51.814;4.510;2023-04-20T09:43:13;101995.19;;;8.73;99.07
11440;BME280;5776;51.814;4.510;2023-04-20T09:45:42;101991.19;;;8.75;97.98
11440;BME280;5776;51.814;4.510;2023-04-20T09:48:09;101988.00;;;8.78;97.31
11440;BME280;5776;51.814;4.510;2023-04-20T09:50:36;101984.47;;;8.78;98.12
11440;BME280;5776;51.814;4.510;2023-04-20T09:53:05;101975.50;;;8.77;98.50
11440;BME280;5776;51.814;4.510;2023-04-20T09:55:31;101982.31;;;8.80;98.32
11440;BME280;5776;51.814;4.510;2023-04-20T09:58:01;101970.50;;;8.86;97.82
11440;BME280;5776;51.814;4.510;2023-04-20T10:00:27;101959.47;;;8.93;97.86
11440;BME280;5776;51.814;4.510;2023-04-20T10:02:53;101967.66;;;8.98;97.87
11440;BME280;5776;51.814;4.510;2023-04-20T10:05:31;101956.94;;;9.03;96.31
11440;BME280;5776;51.814;4.510;2023-04-20T10:08:00;101951.56;;;9.08;97.59
11440;BME280;5776;51.814;4.510;2023-04-20T10:10:27;101965.94;;;9.08;97.95
11440;BME280;5776;51.814;4.510;2023-04-20T10:12:55;101974.38;;;9.12;97.83
11440;BME280;5776;51.814;4.510;2023-04-20T10:15:22;101968.66;;;9.08;97.51
11440;BME280;5776;51.814;4.510;2023-04-20T10:17:49;101958.38;;;9.11;97.28
11440;BME280;5776;51.814;4.510;2023-04-20T10:20:22;101951.06;;;9.11;97.24
11440;BME280;5776;51.814;4.510;2023-04-20T10:22:53;101940.22;;;9.11;96.89
11440;BME280;5776;51.814;4.510;2023-04-20T10:25:24;101942.41;;;9.14;96.43
11440;BME280;5776;51.814;4.510;2023-04-20T10:28:00;101940.53;;;9.15;96.48
11440;BME280;5776;51.814;4.510;2023-04-20T10:30:29;101935.09;;;9.15;96.78
11440;BME280;5776;51.814;4.510;2023-04-20T10:35:46;101947.59;;;9.16;96.89
11440;BME280;5776;51.814;4.510;2023-04-20T10:38:12;101939.72;;;9.14;97.25
11440;BME280;5776;51.814;4.510;2023-04-20T10:40:38;101943.00;;;9.16;96.55
11440;BME280;5776;51.814;4.510;2023-04-20T10:43:17;101936.19;;;9.14;97.42
11440;BME280;5776;51.814;4.510;2023-04-20T10:45:44;101935.09;;;9.15;96.36
11440;BME280;5776;51.814;4.510;2023-04-20T10:48:10;101932.72;;;9.18;96.97
11440;BME280;5776;51.814;4.510;2023-04-20T10:50:36;101929.75;;;9.20;96.72
11440;BME280;5776;51.814;4.510;2023-04-20T10:53:03;101939.25;;;9.22;96.49
11440;BME280;5776;51.814;4.510;2023-04-20T10:55:30;101932.53;;;9.25;96.59
11440;BME280;5776;51.814;4.510;2023-04-20T10:57:56;101924.16;;;9.26;95.91
11440;BME280;5776;51.814;4.510;2023-04-20T11:00:26;101933.38;;;9.25;96.09
11440;BME280;5776;51.814;4.510;2023-04-20T11:02:54;101929.56;;;9.26;95.82
11440;BME280;5776;51.814;4.510;2023-04-20T11:05:26;101935.56;;;9.28;95.96
11440;BME280;5776;51.814;4.510;2023-04-20T11:07:52;101927.94;;;9.25;96.01
11440;BME280;5776;51.814;4.510;2023-04-20T11:10:21;101923.34;;;9.26;95.49
11440;BME280;5776;51.814;4.510;2023-04-20T11:12:48;101921.19;;;9.28;95.47
11440;BME280;5776;51.814;4.510;2023-04-20T11:15:14;101926.34;;;9.29;95.04
11440;BME280;5776;51.814;4.510;2023-04-20T11:17:41;101920.94;;;9.29;95.57
11440;BME280;5776;51.814;4.510;2023-04-20T11:20:09;101922.31;;;9.32;95.49
11440;BME280;5776;51.814;4.510;2023-04-20T11:22:40;101911.78;;;9.36;95.61
11440;BME280;5776;51.814;4.510;2023-04-20T11:25:08;101911.78;;;9.36;94.47
11440;BME280;5776;51.814;4.510;2023-04-20T11:27:35;101897.16;;;9.37;94.67
11440;BME280;5776;51.814;4.510;2023-04-20T11:30:02;101892.53;;;9.37;94.31
11440;BME280;5776;51.814;4.510;2023-04-20T11:32:32;101901.75;;;9.36;94.56
11440;BME280;5776;51.814;4.510;2023-04-20T11:35:00;101903.38;;;9.37;94.05
11440;BME280;5776;51.814;4.510;2023-04-20T11:37:27;101887.94;;;9.38;94.19
11440;BME280;5776;51.814;4.510;2023-04-20T11:40:03;101888.50;;;9.40;93.95
11440;BME280;5776;51.814;4.510;2023-04-20T11:42:35;101888.56;;;9.45;93.30
11440;BME280;5776;51.814;4.510;2023-04-20T11:45:01;101894.31;;;9.48;93.15
11440;BME280;5776;51.814;4.510;2023-04-20T11:47:28;101883.75;;;9.52;93.47
11440;BME280;5776;51.814;4.510;2023-04-20T11:49:54;101884.91;;;9.56;93.04
11440;BME280;5776;51.814;4.510;2023-04-20T11:52:20;101882.81;;;9.63;92.09
11440;BME280;5776;51.814;4.510;2023-04-20T11:54:46;101879.28;;;9.68;91.29
11440;BME280;5776;51.814;4.510;2023-04-20T11:57:12;101869.00;;;9.70;91.49
11440;BME280;5776;51.814;4.510;2023-04-20T11:59:38;101867.69;;;9.72;91.92
11440;BME280;5776;51.814;4.510;2023-04-20T12:02:04;101875.81;;;9.72;91.92
11440;BME280;5776;51.814;4.510;2023-04-20T12:04:30;101870.66;;;9.71;92.15
11440;BME280;5776;51.814;4.510;2023-04-20T12:06:57;101856.84;;;9.72;91.72
11440;BME280;5776;51.814;4.510;2023-04-20T12:09:27;101860.13;;;9.74;91.36
11440;BME280;5776;51.814;4.510;2023-04-20T12:11:55;101854.16;;;9.78;91.17
11440;BME280;5776;51.814;4.510;2023-04-20T12:14:22;101842.25;;;9.79;90.92
11440;BME280;5776;51.814;4.510;2023-04-20T12:16:48;101852.00;;;9.80;91.78
11440;BME280;5776;51.814;4.510;2023-04-20T12:19:14;101851.50;;;9.83;90.76
11440;BME280;5776;51.814;4.510;2023-04-20T12:21:40;101852.63;;;9.87;91.71
11440;BME280;5776;51.814;4.510;2023-04-20T12:24:06;101855.34;;;9.87;90.71
11440;BME280;5776;51.814;4.510;2023-04-20T12:26:32;101856.47;;;9.91;91.68
11440;BME280;5776;51.814;4.510;2023-04-20T12:29:01;101849.91;;;9.87;91.72
11440;BME280;5776;51.814;4.510;2023-04-20T12:31:27;101846.59;;;9.80;92.13
11440;BME280;5776;51.814;4.510;2023-04-20T12:33:53;101851.22;;;9.79;92.75
11440;BME280;5776;51.814;4.510;2023-04-20T12:36:19;101852.00;;;9.80;92.22
11440;BME280;5776;51.814;4.510;2023-04-20T12:38:44;101849.91;;;9.87;91.16
11440;BME280;5776;51.814;4.510;2023-04-20T12:41:13;101852.41;;;9.93;90.94
11440;BME280;5776;51.814;4.510;2023-04-20T12:43:39;101845.13;;;9.99;90.45
11440;BME280;5776;51.814;4.510;2023-04-20T12:46:05;101850.81;;;9.98;90.48
11440;BME280;5776;51.814;4.510;2023-04-20T12:48:31;101857.00;;;9.93;89.82
11440;BME280;5776;51.814;4.510;2023-04-20T12:50:57;101851.34;;;9.94;89.46
11440;BME280;5776;51.814;4.510;2023-04-20T12:53:23;101845.09;;;9.94;89.82
11440;BME280;5776;51.814;4.510;2023-04-20T12:55:49;101842.38;;;9.94;89.55
11440;BME280;5776;51.814;4.510;2023-04-20T12:58:15;101849.44;;;9.95;90.53
11440;BME280;5776;51.814;4.510;2023-04-20T13:00:41;101851.56;;;9.93;90.71
11440;BME280;5776;51.814;4.510;2023-04-20T13:03:10;101836.66;;;9.95;90.02
11440;BME280;5776;51.814;4.510;2023-04-20T13:05:36;101838.56;;;9.95;90.40
11440;BME280;5776;51.814;4.510;2023-04-20T13:08:03;101840.22;;;9.96;90.03
11440;BME280;5776;51.814;4.510;2023-04-20T13:10:29;101829.38;;;9.96;90.19